sensor_id;sensor_type;location;lat;lon;timestamp;P1;durP1;ratioP1;P2;durP2;ratioP2
6207;SDS011;3137;51.550;7.060;2023-04-03T00:01:50;24.73;;;17.47;;
6207;SDS011;3137;51.550;7.060;2023-04-03T00:04:17;27.60;;;15.90;;
6207;SDS011;3137;51.550;7.060;2023-04-03T00:06:43;24.47;;;17.30;;
6207;SDS011;3137;51.550;7.060;2023-04-03T00:09:10;32.20;;;18.97;;
6207;SDS011;3137;51.550;7.060;2023-04-03T00:11:36;31.03;;;18.40;;
6207;SDS011;3137;51.550;7.060;2023-04-03T00:14:03;31.63;;;18.37;;
6207;SDS011;3137;51.550;7.060;2023-04-03T00:16:29;26.13;;;18.00;;
6207;SDS011;3137;51.550;7.060;2023-04-03T00:18:56;23.73;;;16.37;;
6207;SDS011;3137;51.550;7.060;2023-04-03T00:21:22;26.87;;;18.10;;
6207;SDS011;3137;51.550;7.060;2023-04-03T00:23:48;30.53;;;18.00;;
6207;SDS011;3137;51.550;7.060;2023-04-03T00:26:15;35.33;;;15.90;;
6207;SDS011;3137;51.550;7.060;2023-04-03T00:28:41;25.33;;;16.67;;
6207;SDS011;3137;51.550;7.060;2023-04-03T00:31:08;22.93;;;16.33;;
6207;SDS011;3137;51.550;7.060;2023-04-03T00:33:34;32.90;;;17.87;;
6207;SDS011;3137;51.550;7.060;2023-04-03T00:36:05;25.63;;;16.53;;
6207;SDS011;3137;51.550;7.060;2023-04-03T00:38:35;24.73;;;16.03;;
6207;SDS011;3137;51.550;7.060;2023-04-03T00:41:02;26.00;;;16.67;;
6207;SDS011;3137;51.550;7.060;2023-04-03T00:43:29;38.23;;;16.83;;
6207;SDS011;3137;51.550;7.060;2023-04-03T00:45:56;20.63;;;14.37;;
6207;SDS011;3137;51.550;7.060;2023-04-03T00:51:09;16.93;;;13.47;;
6207;SDS011;3137;51.550;7.060;2023-04-03T00:53:46;20.30;;;13.13;;
6207;SDS011;3137;51.550;7.060;2023-04-03T00:56:18;11.97;;;10.73;;
6207;SDS011;3137;51.550;7.060;2023-04-03T00:58:51;11.93;;;10.50;;
6207;SDS011;3137;51.550;7.060;2023-04-03T01:01:28;19.10;;;11.10;;
6207;SDS011;3137;51.550;7.060;2023-04-03T01:03:55;10.57;;;9.77;;
6207;SDS011;3137;51.550;7.060;2023-04-03T01:06:25;9.40;;;8.70;;
6207;SDS011;3137;51.550;7.060;2023-04-03T01:08:59;10.60;;;9.77;;
6207;SDS011;3137;51.550;7.060;2023-04-03T01:11:27;9.03;;;8.20;;
6207;SDS011;3137;51.550;7.060;2023-04-03T01:13:53;9.83;;;8.90;;
6207;SDS011;3137;51.550;7.060;2023-04-03T01:16:20;8.53;;;7.90;;
6207;SDS011;3137;51.550;7.060;2023-04-03T01:18:47;7.30;;;6.90;;
6207;SDS011;3137;51.550;7.060;2023-04-03T01:24:20;4.80;;;4.50;;
6207;SDS011;3137;51.550;7.060;2023-04-03T01:27:01;5.87;;;5.47;;
6207;SDS011;3137;51.550;7.060;2023-04-03T01:29:30;7.30;;;6.03;;
6207;SDS011;3137;51.550;7.060;2023-04-03T01:31:57;6.23;;;5.87;;
6207;SDS011;3137;51.550;7.060;2023-04-03T01:34:26;5.37;;;4.93;;
6207;SDS011;3137;51.550;7.060;2023-04-03T01:36:54;5.33;;;5.07;;
6207;SDS011;3137;51.550;7.060;2023-04-03T01:39:21;4.73;;;4.53;;
6207;SDS011;3137;51.550;7.060;2023-04-03T01:41:48;4.57;;;4.17;;
6207;SDS011;3137;51.550;7.060;2023-04-03T01:44:22;4.87;;;4.40;;
6207;SDS011;3137;51.550;7.060;2023-04-03T01:46:48;4.80;;;4.33;;
6207;SDS011;3137;51.550;7.060;2023-04-03T01:49:15;5.90;;;3.43;;
6207;SDS011;3137;51.550;7.060;2023-04-03T01:51:41;4.13;;;4.00;;
6207;SDS011;3137;51.550;7.060;2023-04-03T01:54:08;4.07;;;3.87;;
6207;SDS011;3137;51.550;7.060;2023-04-03T01:56:34;7.43;;;3.60;;
6207;SDS011;3137;51.550;7.060;2023-04-03T01:59:01;3.53;;;3.43;;
6207;SDS011;3137;51.550;7.060;2023-04-03T02:01:27;3.33;;;3.03;;
6207;SDS011;3137;51.550;7.060;2023-04-03T02:03:54;4.07;;;3.87;;
6207;SDS011;3137;51.550;7.060;2023-04-03T02:06:20;4.27;;;3.87;;
6207;SDS011;3137;51.550;7.060;2023-04-03T02:08:47;3.10;;;2.83;;
6207;SDS011;3137;51.550;7.060;2023-04-03T02:11:13;3.97;;;3.77;;
6207;SDS011;3137;51.550;7.060;2023-04-03T02:13:40;4.57;;;4.27;;
6207;SDS011;3137;51.550;7.060;2023-04-03T02:16:07;4.17;;;3.87;;
6207;SDS011;3137;51.550;7.060;2023-04-03T02:18:36;4.80;;;4.33;;
6207;SDS011;3137;51.550;7.060;2023-04-03T02:21:02;4.90;;;3.03;;
6207;SDS011;3137;51.550;7.060;2023-04-03T02:23:29;3.43;;;3.33;;
6207;SDS011;3137;51.550;7.060;2023-04-03T02:26:05;7.57;;;3.60;;
6207;SDS011;3137;51.550;7.060;2023-04-03T02:28:34;3.90;;;3.60;;
6207;SDS011;3137;51.550;7.060;2023-04-03T02:31:01;3.83;;;3.73;;
6207;SDS011;3137;51.550;7.060;2023-04-03T02:33:29;3.13;;;3.03;;
6207;SDS011;3137;51.550;7.060;2023-04-03T02:35:56;3.43;;;3.33;;
6207;SDS011;3137;51.550;7.060;2023-04-03T02:38:24;2.83;;;2.73;;
6207;SDS011;3137;51.550;7.060;2023-04-03T02:40:52;2.83;;;2.70;;
6207;SDS011;3137;51.550;7.060;2023-04-03T02:43:18;7.60;;;3.90;;
6207;SDS011;3137;51.550;7.060;2023-04-03T02:45:45;3.47;;;3.27;;
6207;SDS011;3137;51.550;7.060;2023-04-03T02:48:11;4.90;;;3.73;;
6207;SDS011;3137;51.550;7.060;2023-04-03T02:50:38;4.47;;;4.13;;
6207;SDS011;3137;51.550;7.060;2023-04-03T02:53:04;3.00;;;3.00;;
6207;SDS011;3137;51.550;7.060;2023-04-03T02:55:30;5.60;;;3.80;;
6207;SDS011;3137;51.550;7.060;2023-04-03T02:57:57;3.50;;;2.87;;
6207;SDS011;3137;51.550;7.060;2023-04-03T03:00:23;3.60;;;3.33;;
6207;SDS011;3137;51.550;7.060;2023-04-03T03:02:50;4.00;;;3.70;;
6207;SDS011;3137;51.550;7.060;2023-04-03T03:05:16;3.20;;;3.20;;
6207;SDS011;3137;51.550;7.060;2023-04-03T03:07:44;3.87;;;3.13;;
6207;SDS011;3137;51.550;7.060;2023-04-03T03:10:10;4.77;;;3.77;;
6207;SDS011;3137;51.550;7.060;2023-04-03T03:12:37;3.50;;;3.40;;
6207;SDS011;3137;51.550;7.060;2023-04-03T03:15:03;4.40;;;4.00;;
6207;SDS011;3137;51.550;7.060;2023-04-03T03:17:30;4.77;;;3.60;;
6207;SDS011;3137;51.550;7.060;2023-04-03T03:19:56;3.47;;;3.27;;
6207;SDS011;3137;51.550;7.060;2023-04-03T03:22:23;8.87;;;3.10;;
6207;SDS011;3137;51.550;7.060;2023-04-03T03:24:49;2.97;;;2.87;;
6207;SDS011;3137;51.550;7.060;2023-04-03T03:27:16;3.23;;;3.13;;
6207;SDS011;3137;51.550;7.060;2023-04-03T03:29:42;4.17;;;3.87;;
6207;SDS011;3137;51.550;7.060;2023-04-03T03:32:09;3.57;;;3.43;;
6207;SDS011;3137;51.550;7.060;2023-04-03T03:34:36;5.50;;;3.73;;
6207;SDS011;3137;51.550;7.060;2023-04-03T03:37:02;3.70;;;3.60;;
6207;SDS011;3137;51.550;7.060;2023-04-03T03:39:28;3.57;;;3.43;;
6207;SDS011;3137;51.550;7.060;2023-04-03T03:41:55;3.50;;;3.40;;
6207;SDS011;3137;51.550;7.060;2023-04-03T03:44:22;3.57;;;3.47;;
6207;SDS011;3137;51.550;7.060;2023-04-03T03:46:48;6.93;;;3.80;;
6207;SDS011;3137;51.550;7.060;2023-04-03T03:49:15;4.07;;;3.07;;
6207;SDS011;3137;51.550;7.060;2023-04-03T03:51:42;3.97;;;3.77;;
6207;SDS011;3137;51.550;7.060;2023-04-03T03:54:09;9.17;;;3.63;;
6207;SDS011;3137;51.550;7.060;2023-04-03T03:56:35;4.50;;;3.43;;
6207;SDS011;3137;51.550;7.060;2023-04-03T03:59:02;3.50;;;3.07;;
6207;SDS011;3137;51.550;7.060;2023-04-03T04:01:30;6.53;;;3.97;;
6207;SDS011;3137;51.550;7.060;2023-04-03T04:03:56;4.87;;;3.63;;
6207;SDS011;3137;51.550;7.060;2023-04-03T04:06:27;7.60;;;3.90;;
6207;SDS011;3137;51.550;7.060;2023-04-03T04:08:57;8.20;;;3.13;;
6207;SDS011;3137;51.550;7.060;2023-04-03T04:11:24;6.20;;;4.23;;
6207;SDS011;3137;51.550;7.060;2023-04-03T04:13:52;3.97;;;3.87;;
6207;SDS011;3137;51.550;7.060;2023-04-03T04:16:23;4.00;;;3.80;;
6207;SDS011;3137;51.550;7.060;2023-04-03T04:18:50;6.43;;;3.63;;
6207;SDS011;3137;51.550;7.060;2023-04-03T04:21:17;3.90;;;3.70;;
6207;SDS011;3137;51.550;7.060;2023-04-03T04:23:45;3.90;;;3.60;;
6207;SDS011;3137;51.550;7.060;2023-04-03T04:26:12;4.20;;;4.00;;
6207;SDS011;3137;51.550;7.060;2023-04-03T04:28:39;4.07;;;3.30;;
6207;SDS011;3137;51.550;7.060;2023-04-03T04:31:06;3.90;;;3.60;;
6207;SDS011;3137;51.550;7.060;2023-04-03T04:33:32;3.37;;;3.27;;
6207;SDS011;3137;51.550;7.060;2023-04-03T04:36:01;3.77;;;3.50;;
6207;SDS011;3137;51.550;7.060;2023-04-03T04:38:28;9.30;;;4.70;;
6207;SDS011;3137;51.550;7.060;2023-04-03T04:40:55;5.43;;;3.60;;
6207;SDS011;3137;51.550;7.060;2023-04-03T04:43:22;4.40;;;4.27;;
6207;SDS011;3137;51.550;7.060;2023-04-03T04:46:04;3.20;;;3.00;;
6207;SDS011;3137;51.550;7.060;2023-04-03T04:48:37;6.37;;;3.73;;
6207;SDS011;3137;51.550;7.060;2023-04-03T04:51:05;4.47;;;4.07;;
6207;SDS011;3137;51.550;7.060;2023-04-03T04:53:32;8.33;;;3.53;;
6207;SDS011;3137;51.550;7.060;2023-04-03T04:55:59;7.23;;;4.40;;
6207;SDS011;3137;51.550;7.060;2023-04-03T04:58:25;8.83;;;3.93;;
6207;SDS011;3137;51.550;7.060;2023-04-03T05:01:02;9.30;;;4.87;;
6207;SDS011;3137;51.550;7.060;2023-04-03T05:03:33;4.50;;;4.30;;
6207;SDS011;3137;51.550;7.060;2023-04-03T05:06:00;6.40;;;3.80;;
6207;SDS011;3137;51.550;7.060;2023-04-03T05:08:29;4.80;;;4.17;;
6207;SDS011;3137;51.550;7.060;2023-04-03T05:10:55;4.10;;;3.80;;
6207;SDS011;3137;51.550;7.060;2023-04-03T05:13:24;5.23;;;3.63;;
6207;SDS011;3137;51.550;7.060;2023-04-03T05:15:50;7.03;;;4.33;;
6207;SDS011;3137;51.550;7.060;2023-04-03T05:18:17;4.40;;;4.10;;
6207;SDS011;3137;51.550;7.060;2023-04-03T05:20:44;4.13;;;3.73;;
6207;SDS011;3137;51.550;7.060;2023-04-03T05:23:10;4.27;;;4.07;;
6207;SDS011;3137;51.550;7.060;2023-04-03T05:25:38;4.73;;;4.50;;
6207;SDS011;3137;51.550;7.060;2023-04-03T05:28:05;6.13;;;5.00;;
6207;SDS011;3137;51.550;7.060;2023-04-03T05:30:33;5.40;;;4.20;;
6207;SDS011;3137;51.550;7.060;2023-04-03T05:33:01;12.13;;;4.73;;
6207;SDS011;3137;51.550;7.060;2023-04-03T05:35:37;6.93;;;4.67;;
6207;SDS011;3137;51.550;7.060;2023-04-03T05:38:10;4.30;;;3.90;;
6207;SDS011;3137;51.550;7.060;2023-04-03T05:40:37;4.37;;;4.13;;
6207;SDS011;3137;51.550;7.060;2023-04-03T05:43:04;4.30;;;3.93;;
6207;SDS011;3137;51.550;7.060;2023-04-03T05:45:34;17.97;;;4.77;;
6207;SDS011;3137;51.550;7.060;2023-04-03T05:48:01;4.40;;;4.07;;
6207;SDS011;3137;51.550;7.060;2023-04-03T05:50:28;4.57;;;4.20;;
6207;SDS011;3137;51.550;7.060;2023-04-03T05:52:56;4.17;;;3.87;;
6207;SDS011;3137;51.550;7.060;2023-04-03T05:55:27;4.53;;;3.97;;
6207;SDS011;3137;51.550;7.060;2023-04-03T05:57:53;4.07;;;3.87;;
6207;SDS011;3137;51.550;7.060;2023-04-03T06:00:20;4.77;;;4.40;;
6207;SDS011;3137;51.550;7.060;2023-04-03T06:02:55;4.50;;;4.27;;
6207;SDS011;3137;51.550;7.060;2023-04-03T06:05:24;4.20;;;4.10;;
6207;SDS011;3137;51.550;7.060;2023-04-03T06:07:50;4.80;;;4.40;;
6207;SDS011;3137;51.550;7.060;2023-04-03T06:10:17;4.40;;;4.10;;
6207;SDS011;3137;51.550;7.060;2023-04-03T06:12:44;4.30;;;4.00;;
6207;SDS011;3137;51.550;7.060;2023-04-03T06:15:11;4.50;;;4.10;;
6207;SDS011;3137;51.550;7.060;2023-04-03T06:17:39;4.37;;;4.17;;
6207;SDS011;3137;51.550;7.060;2023-04-03T06:20:06;5.20;;;4.80;;
6207;SDS011;3137;51.550;7.060;2023-04-03T06:22:33;4.77;;;4.33;;
6207;SDS011;3137;51.550;7.060;2023-04-03T06:25:00;3.77;;;3.63;;
6207;SDS011;3137;51.550;7.060;2023-04-03T06:27:27;5.63;;;4.40;;
6207;SDS011;3137;51.550;7.060;2023-04-03T06:29:54;4.13;;;3.83;;
6207;SDS011;3137;51.550;7.060;2023-04-03T06:32:20;8.47;;;4.07;;
6207;SDS011;3137;51.550;7.060;2023-04-03T06:34:47;3.93;;;3.77;;
6207;SDS011;3137;51.550;7.060;2023-04-03T06:37:14;4.03;;;3.63;;
6207;SDS011;3137;51.550;7.060;2023-04-03T06:39:46;3.83;;;3.63;;
6207;SDS011;3137;51.550;7.060;2023-04-03T06:42:12;4.13;;;3.80;;
6207;SDS011;3137;51.550;7.060;2023-04-03T06:44:47;4.20;;;4.00;;
6207;SDS011;3137;51.550;7.060;2023-04-03T06:47:14;4.53;;;4.10;;
6207;SDS011;3137;51.550;7.060;2023-04-03T06:49:42;5.60;;;4.23;;
6207;SDS011;3137;51.550;7.060;2023-04-03T06:52:08;3.73;;;3.53;;
6207;SDS011;3137;51.550;7.060;2023-04-03T06:54:36;4.50;;;4.17;;
6207;SDS011;3137;51.550;7.060;2023-04-03T06:57:02;4.37;;;3.97;;
6207;SDS011;3137;51.550;7.060;2023-04-03T06:59:28;5.20;;;4.20;;
6207;SDS011;3137;51.550;7.060;2023-04-03T07:01:55;3.97;;;3.83;;
6207;SDS011;3137;51.550;7.060;2023-04-03T07:04:22;3.93;;;3.63;;
6207;SDS011;3137;51.550;7.060;2023-04-03T07:06:48;6.27;;;4.40;;
6207;SDS011;3137;51.550;7.060;2023-04-03T07:09:15;5.17;;;4.10;;
6207;SDS011;3137;51.550;7.060;2023-04-03T07:11:41;3.80;;;3.60;;
6207;SDS011;3137;51.550;7.060;2023-04-03T07:14:07;3.70;;;3.50;;
6207;SDS011;3137;51.550;7.060;2023-04-03T07:16:34;4.73;;;4.23;;
6207;SDS011;3137;51.550;7.060;2023-04-03T07:19:01;3.47;;;3.27;;
6207;SDS011;3137;51.550;7.060;2023-04-03T07:21:29;3.93;;;3.33;;
6207;SDS011;3137;51.550;7.060;2023-04-03T07:23:55;3.60;;;3.27;;
6207;SDS011;3137;51.550;7.060;2023-04-03T07:26:22;4.50;;;3.60;;
6207;SDS011;3137;51.550;7.060;2023-04-03T07:28:48;5.20;;;4.07;;
6207;SDS011;3137;51.550;7.060;2023-04-03T07:31:16;5.03;;;4.63;;
6207;SDS011;3137;51.550;7.060;2023-04-03T07:33:43;4.53;;;4.13;;
6207;SDS011;3137;51.550;7.060;2023-04-03T07:36:13;4.43;;;4.23;;
6207;SDS011;3137;51.550;7.060;2023-04-03T07:38:42;4.37;;;3.60;;
6207;SDS011;3137;51.550;7.060;2023-04-03T07:41:10;7.37;;;3.87;;
6207;SDS011;3137;51.550;7.060;2023-04-03T07:43:41;4.00;;;3.77;;
6207;SDS011;3137;51.550;7.060;2023-04-03T07:46:08;4.07;;;3.80;;
6207;SDS011;3137;51.550;7.060;2023-04-03T07:48:35;7.73;;;4.17;;
6207;SDS011;3137;51.550;7.060;2023-04-03T07:51:02;3.10;;;3.00;;
6207;SDS011;3137;51.550;7.060;2023-04-03T07:53:30;4.20;;;3.70;;
6207;SDS011;3137;51.550;7.060;2023-04-03T07:55:57;5.03;;;3.97;;
6207;SDS011;3137;51.550;7.060;2023-04-03T07:58:25;5.43;;;3.93;;
6207;SDS011;3137;51.550;7.060;2023-04-03T08:00:52;5.57;;;3.43;;
6207;SDS011;3137;51.550;7.060;2023-04-03T08:03:19;3.97;;;3.73;;
6207;SDS011;3137;51.550;7.060;2023-04-03T08:05:47;3.80;;;3.60;;
6207;SDS011;3137;51.550;7.060;2023-04-03T08:08:15;3.67;;;3.37;;
6207;SDS011;3137;51.550;7.060;2023-04-03T08:10:52;2.73;;;2.60;;
6207;SDS011;3137;51.550;7.060;2023-04-03T08:13:20;4.83;;;3.10;;
6207;SDS011;3137;51.550;7.060;2023-04-03T08:15:47;2.93;;;2.93;;
6207;SDS011;3137;51.550;7.060;2023-04-03T08:18:14;4.73;;;3.10;;
6207;SDS011;3137;51.550;7.060;2023-04-03T08:20:41;3.97;;;3.57;;
6207;SDS011;3137;51.550;7.060;2023-04-03T08:23:09;3.60;;;3.23;;
6207;SDS011;3137;51.550;7.060;2023-04-03T08:25:39;2.93;;;2.83;;
6207;SDS011;3137;51.550;7.060;2023-04-03T08:28:07;3.80;;;3.47;;
6207;SDS011;3137;51.550;7.060;2023-04-03T08:30:34;3.70;;;3.53;;
6207;SDS011;3137;51.550;7.060;2023-04-03T08:33:01;3.63;;;3.53;;
6207;SDS011;3137;51.550;7.060;2023-04-03T08:35:29;3.43;;;3.43;;
6207;SDS011;3137;51.550;7.060;2023-04-03T08:37:56;2.83;;;2.73;;
6207;SDS011;3137;51.550;7.060;2023-04-03T08:40:22;4.03;;;3.57;;
6207;SDS011;3137;51.550;7.060;2023-04-03T08:48:05;3.07;;;2.97;;
6207;SDS011;3137;51.550;7.060;2023-04-03T08:50:38;3.57;;;3.27;;
6207;SDS011;3137;51.550;7.060;2023-04-03T08:53:14;4.30;;;3.40;;
6207;SDS011;3137;51.550;7.060;2023-04-03T08:55:47;3.50;;;3.43;;
6207;SDS011;3137;51.550;7.060;2023-04-03T08:58:22;3.40;;;3.10;;
6207;SDS011;3137;51.550;7.060;2023-04-03T09:01:02;3.37;;;3.20;;
6207;SDS011;3137;51.550;7.060;2023-04-03T09:03:31;6.07;;;3.03;;
6207;SDS011;3137;51.550;7.060;2023-04-03T09:08:43;2.43;;;2.43;;
6207;SDS011;3137;51.550;7.060;2023-04-03T09:11:26;12.57;;;3.30;;
6207;SDS011;3137;51.550;7.060;2023-04-03T09:14:02;3.17;;;2.97;;
6207;SDS011;3137;51.550;7.060;2023-04-03T09:22:09;3.27;;;3.27;;
6207;SDS011;3137;51.550;7.060;2023-04-03T09:24:45;9.93;;;3.17;;
6207;SDS011;3137;51.550;7.060;2023-04-03T09:27:13;3.10;;;2.90;;
6207;SDS011;3137;51.550;7.060;2023-04-03T09:29:40;3.07;;;2.97;;
6207;SDS011;3137;51.550;7.060;2023-04-03T09:32:17;2.80;;;2.70;;
6207;SDS011;3137;51.550;7.060;2023-04-03T09:34:52;3.30;;;2.80;;
6207;SDS011;3137;51.550;7.060;2023-04-03T09:37:33;2.57;;;2.40;;
6207;SDS011;3137;51.550;7.060;2023-04-03T09:40:11;2.50;;;2.50;;
6207;SDS011;3137;51.550;7.060;2023-04-03T09:42:53;2.23;;;2.10;;
6207;SDS011;3137;51.550;7.060;2023-04-03T09:45:31;1.93;;;1.83;;
6207;SDS011;3137;51.550;7.060;2023-04-03T09:50:58;2.27;;;2.27;;
6207;SDS011;3137;51.550;7.060;2023-04-03T09:53:36;2.13;;;1.97;;
6207;SDS011;3137;51.550;7.060;2023-04-03T09:59:27;3.63;;;2.30;;
6207;SDS011;3137;51.550;7.060;2023-04-03T10:01:33;2.33;;;2.33;;
6207;SDS011;3137;51.550;7.060;2023-04-03T10:04:12;2.33;;;2.33;;
6207;SDS011;3137;51.550;7.060;2023-04-03T10:06:43;2.53;;;2.33;;
6207;SDS011;3137;51.550;7.060;2023-04-03T10:09:23;2.60;;;2.50;;
6207;SDS011;3137;51.550;7.060;2023-04-03T10:12:01;3.13;;;2.67;;
6207;SDS011;3137;51.550;7.060;2023-04-03T10:14:36;1.80;;;1.80;;
6207;SDS011;3137;51.550;7.060;2023-04-03T10:17:18;2.50;;;2.50;;
6207;SDS011;3137;51.550;7.060;2023-04-03T10:19:57;2.77;;;2.67;;
6207;SDS011;3137;51.550;7.060;2023-04-03T10:22:35;2.10;;;2.10;;
6207;SDS011;3137;51.550;7.060;2023-04-03T10:25:17;2.07;;;2.00;;
6207;SDS011;3137;51.550;7.060;2023-04-03T10:33:28;5.70;;;2.50;;
6207;SDS011;3137;51.550;7.060;2023-04-03T10:48:02;2.30;;;2.20;;
6207;SDS011;3137;51.550;7.060;2023-04-03T10:50:44;2.30;;;2.20;;
6207;SDS011;3137;51.550;7.060;2023-04-03T10:53:39;2.47;;;2.37;;
6207;SDS011;3137;51.550;7.060;2023-04-03T11:01:40;2.00;;;2.00;;
6207;SDS011;3137;51.550;7.060;2023-04-03T11:04:08;2.33;;;2.23;;
6207;SDS011;3137;51.550;7.060;2023-04-03T11:06:39;2.00;;;2.00;;
6207;SDS011;3137;51.550;7.060;2023-04-03T11:11:51;2.30;;;1.80;;
6207;SDS011;3137;51.550;7.060;2023-04-03T11:14:26;2.13;;;2.13;;
6207;SDS011;3137;51.550;7.060;2023-04-03T11:19:54;2.10;;;2.10;;
6207;SDS011;3137;51.550;7.060;2023-04-03T11:22:36;2.60;;;2.60;;
6207;SDS011;3137;51.550;7.060;2023-04-03T11:27:39;1.87;;;1.87;;
6207;SDS011;3137;51.550;7.060;2023-04-03T11:30:13;2.23;;;2.13;;
6207;SDS011;3137;51.550;7.060;2023-04-03T11:32:55;10.97;;;2.67;;
6207;SDS011;3137;51.550;7.060;2023-04-03T11:35:31;2.00;;;2.00;;
6207;SDS011;3137;51.550;7.060;2023-04-03T11:37:59;3.37;;;3.27;;
6207;SDS011;3137;51.550;7.060;2023-04-03T11:40:28;4.47;;;2.60;;
6207;SDS011;3137;51.550;7.060;2023-04-03T11:47:52;2.83;;;2.20;;
6207;SDS011;3137;51.550;7.060;2023-04-03T12:11:13;1.77;;;1.77;;
6207;SDS011;3137;51.550;7.060;2023-04-03T12:16:19;2.00;;;2.00;;
6207;SDS011;3137;51.550;7.060;2023-04-03T12:19:27;2.17;;;2.00;;
6207;SDS011;3137;51.550;7.060;2023-04-03T12:22:08;2.33;;;2.33;;
6207;SDS011;3137;51.550;7.060;2023-04-03T12:24:36;1.70;;;1.60;;
6207;SDS011;3137;51.550;7.060;2023-04-03T12:27:10;2.00;;;1.90;;
6207;SDS011;3137;51.550;7.060;2023-04-03T12:29:43;1.93;;;1.83;;
6207;SDS011;3137;51.550;7.060;2023-04-03T12:42:43;2.87;;;2.63;;
6207;SDS011;3137;51.550;7.060;2023-04-03T12:45:17;2.50;;;2.40;;
6207;SDS011;3137;51.550;7.060;2023-04-03T12:47:48;2.37;;;2.37;;
6207;SDS011;3137;51.550;7.060;2023-04-03T12:52:57;2.23;;;2.23;;
6207;SDS011;3137;51.550;7.060;2023-04-03T12:55:28;2.03;;;2.03;;
6207;SDS011;3137;51.550;7.060;2023-04-03T12:57:54;2.10;;;2.10;;
6207;SDS011;3137;51.550;7.060;2023-04-03T13:00:22;2.43;;;2.33;;
6207;SDS011;3137;51.550;7.060;2023-04-03T13:02:51;1.90;;;1.90;;
6207;SDS011;3137;51.550;7.060;2023-04-03T13:05:18;2.20;;;2.10;;
6207;SDS011;3137;51.550;7.060;2023-04-03T13:07:52;2.40;;;1.90;;
6207;SDS011;3137;51.550;7.060;2023-04-03T13:10:23;2.50;;;2.50;;
6207;SDS011;3137;51.550;7.060;2023-04-03T13:12:55;4.20;;;2.43;;
6207;SDS011;3137;51.550;7.060;2023-04-03T13:15:29;4.33;;;1.77;;
6207;SDS011;3137;51.550;7.060;2023-04-03T13:18:05;2.00;;;1.90;;
6207;SDS011;3137;51.550;7.060;2023-04-03T13:20:46;1.90;;;1.90;;
6207;SDS011;3137;51.550;7.060;2023-04-03T13:23:14;2.00;;;2.00;;
6207;SDS011;3137;51.550;7.060;2023-04-03T13:25:46;6.87;;;2.03;;
6207;SDS011;3137;51.550;7.060;2023-04-03T13:28:21;10.90;;;1.47;;
6207;SDS011;3137;51.550;7.060;2023-04-03T13:30:55;1.70;;;1.60;;
6207;SDS011;3137;51.550;7.060;2023-04-03T13:33:23;3.73;;;2.10;;
6207;SDS011;3137;51.550;7.060;2023-04-03T13:38:36;2.07;;;2.07;;
6207;SDS011;3137;51.550;7.060;2023-04-03T13:41:05;2.23;;;2.13;;
6207;SDS011;3137;51.550;7.060;2023-04-03T13:43:49;3.23;;;1.90;;
6207;SDS011;3137;51.550;7.060;2023-04-03T13:48:46;2.50;;;2.50;;
6207;SDS011;3137;51.550;7.060;2023-04-03T13:53:49;1.57;;;1.43;;
6207;SDS011;3137;51.550;7.060;2023-04-03T13:59:00;2.00;;;2.00;;
6207;SDS011;3137;51.550;7.060;2023-04-03T14:01:36;1.70;;;1.70;;
6207;SDS011;3137;51.550;7.060;2023-04-03T14:04:12;1.87;;;1.70;;
6207;SDS011;3137;51.550;7.060;2023-04-03T14:06:54;2.27;;;2.17;;
6207;SDS011;3137;51.550;7.060;2023-04-03T14:09:22;2.13;;;2.03;;
6207;SDS011;3137;51.550;7.060;2023-04-03T14:11:49;2.27;;;2.10;;
6207;SDS011;3137;51.550;7.060;2023-04-03T14:14:20;2.00;;;2.00;;
6207;SDS011;3137;51.550;7.060;2023-04-03T14:16:52;2.83;;;2.83;;
6207;SDS011;3137;51.550;7.060;2023-04-03T14:19:22;2.23;;;2.17;;
6207;SDS011;3137;51.550;7.060;2023-04-03T14:21:51;3.57;;;1.97;;
6207;SDS011;3137;51.550;7.060;2023-04-03T14:24:20;2.57;;;1.93;;
6207;SDS011;3137;51.550;7.060;2023-04-03T14:26:48;9.33;;;2.40;;
6207;SDS011;3137;51.550;7.060;2023-04-03T14:29:17;3.03;;;1.90;;
6207;SDS011;3137;51.550;7.060;2023-04-03T14:31:44;2.03;;;1.93;;
6207;SDS011;3137;51.550;7.060;2023-04-03T14:34:12;2.47;;;1.83;;
6207;SDS011;3137;51.550;7.060;2023-04-03T14:36:40;4.83;;;2.70;;
6207;SDS011;3137;51.550;7.060;2023-04-03T14:39:11;2.20;;;2.20;;
6207;SDS011;3137;51.550;7.060;2023-04-03T14:41:43;3.30;;;2.13;;
6207;SDS011;3137;51.550;7.060;2023-04-03T14:44:14;2.83;;;2.20;;
6207;SDS011;3137;51.550;7.060;2023-04-03T14:46:41;2.40;;;2.30;;
6207;SDS011;3137;51.550;7.060;2023-04-03T14:49:24;5.87;;;2.30;;
6207;SDS011;3137;51.550;7.060;2023-04-03T14:51:54;4.30;;;2.27;;
6207;SDS011;3137;51.550;7.060;2023-04-03T14:54:22;2.23;;;2.10;;
6207;SDS011;3137;51.550;7.060;2023-04-03T14:56:54;8.73;;;2.83;;
6207;SDS011;3137;51.550;7.060;2023-04-03T14:59:22;2.13;;;2.03;;
6207;SDS011;3137;51.550;7.060;2023-04-03T15:01:48;2.43;;;2.33;;
6207;SDS011;3137;51.550;7.060;2023-04-03T15:04:16;2.47;;;2.37;;
6207;SDS011;3137;51.550;7.060;2023-04-03T15:06:44;2.67;;;2.57;;
6207;SDS011;3137;51.550;7.060;2023-04-03T15:09:22;2.80;;;2.60;;
6207;SDS011;3137;51.550;7.060;2023-04-03T15:11:51;2.37;;;2.27;;
6207;SDS011;3137;51.550;7.060;2023-04-03T15:14:19;2.47;;;2.37;;
6207;SDS011;3137;51.550;7.060;2023-04-03T15:17:05;2.53;;;2.53;;
6207;SDS011;3137;51.550;7.060;2023-04-03T15:19:35;4.30;;;2.67;;
6207;SDS011;3137;51.550;7.060;2023-04-03T15:22:04;2.50;;;2.30;;
6207;SDS011;3137;51.550;7.060;2023-04-03T15:24:30;4.43;;;2.57;;
6207;SDS011;3137;51.550;7.060;2023-04-03T15:26:57;2.30;;;2.30;;
6207;SDS011;3137;51.550;7.060;2023-04-03T15:29:23;4.10;;;2.83;;
6207;SDS011;3137;51.550;7.060;2023-04-03T15:31:50;2.87;;;2.67;;
6207;SDS011;3137;51.550;7.060;2023-04-03T15:34:19;2.10;;;2.00;;
6207;SDS011;3137;51.550;7.060;2023-04-03T15:36:47;2.27;;;2.27;;
6207;SDS011;3137;51.550;7.060;2023-04-03T15:39:13;3.40;;;3.20;;
6207;SDS011;3137;51.550;7.060;2023-04-03T15:41:42;3.37;;;2.23;;
6207;SDS011;3137;51.550;7.060;2023-04-03T15:44:08;2.50;;;2.50;;
6207;SDS011;3137;51.550;7.060;2023-04-03T15:46:35;3.27;;;2.97;;
6207;SDS011;3137;51.550;7.060;2023-04-03T15:49:02;2.77;;;2.47;;
6207;SDS011;3137;51.550;7.060;2023-04-03T15:51:29;2.10;;;2.10;;
6207;SDS011;3137;51.550;7.060;2023-04-03T15:53:56;3.63;;;2.17;;
6207;SDS011;3137;51.550;7.060;2023-04-03T15:56:22;4.50;;;2.03;;
6207;SDS011;3137;51.550;7.060;2023-04-03T15:58:48;2.80;;;2.70;;
6207;SDS011;3137;51.550;7.060;2023-04-03T16:01:15;2.63;;;2.43;;
6207;SDS011;3137;51.550;7.060;2023-04-03T16:03:41;1.93;;;1.93;;
6207;SDS011;3137;51.550;7.060;2023-04-03T16:06:12;2.23;;;1.93;;
6207;SDS011;3137;51.550;7.060;2023-04-03T16:08:39;2.43;;;2.33;;
6207;SDS011;3137;51.550;7.060;2023-04-03T16:11:06;2.50;;;2.50;;
6207;SDS011;3137;51.550;7.060;2023-04-03T16:13:32;2.07;;;1.97;;
6207;SDS011;3137;51.550;7.060;2023-04-03T16:16:01;2.53;;;2.43;;
6207;SDS011;3137;51.550;7.060;2023-04-03T16:18:28;3.63;;;2.47;;
6207;SDS011;3137;51.550;7.060;2023-04-03T16:20:55;3.50;;;2.80;;
6207;SDS011;3137;51.550;7.060;2023-04-03T16:23:22;3.33;;;2.63;;
6207;SDS011;3137;51.550;7.060;2023-04-03T16:25:49;2.23;;;2.20;;
6207;SDS011;3137;51.550;7.060;2023-04-03T16:28:16;2.50;;;2.47;;
6207;SDS011;3137;51.550;7.060;2023-04-03T16:30:44;3.10;;;2.90;;
6207;SDS011;3137;51.550;7.060;2023-04-03T16:33:13;2.67;;;2.33;;
6207;SDS011;3137;51.550;7.060;2023-04-03T16:35:39;3.03;;;2.20;;
6207;SDS011;3137;51.550;7.060;2023-04-03T16:38:07;2.30;;;2.20;;
6207;SDS011;3137;51.550;7.060;2023-04-03T16:40:34;3.77;;;2.10;;
6207;SDS011;3137;51.550;7.060;2023-04-03T16:43:01;7.37;;;2.27;;
6207;SDS011;3137;51.550;7.060;2023-04-03T16:45:28;2.60;;;2.60;;
6207;SDS011;3137;51.550;7.060;2023-04-03T16:47:54;2.93;;;2.70;;
6207;SDS011;3137;51.550;7.060;2023-04-03T16:50:21;2.73;;;2.73;;
6207;SDS011;3137;51.550;7.060;2023-04-03T16:52:47;2.93;;;2.73;;
6207;SDS011;3137;51.550;7.060;2023-04-03T16:55:14;2.43;;;2.23;;
6207;SDS011;3137;51.550;7.060;2023-04-03T16:57:40;2.90;;;2.90;;
6207;SDS011;3137;51.550;7.060;2023-04-03T17:00:07;5.47;;;3.10;;
6207;SDS011;3137;51.550;7.060;2023-04-03T17:02:34;2.93;;;2.83;;
6207;SDS011;3137;51.550;7.060;2023-04-03T17:05:00;4.10;;;2.97;;
6207;SDS011;3137;51.550;7.060;2023-04-03T17:07:27;2.27;;;2.23;;
6207;SDS011;3137;51.550;7.060;2023-04-03T17:09:53;2.77;;;2.67;;
6207;SDS011;3137;51.550;7.060;2023-04-03T17:12:20;2.53;;;2.43;;
6207;SDS011;3137;51.550;7.060;2023-04-03T17:14:47;2.17;;;2.07;;